createdAt,value
2022-10-09T00:00:40.180Z,102098.28
2022-10-09T00:03:07.280Z,102098.28
2022-10-09T00:05:33.934Z,102100.22
2022-10-09T00:08:00.518Z,102114.44
2022-10-09T00:10:27.319Z,102109.00
2022-10-09T00:12:53.999Z,102110.25
2022-10-09T00:15:20.589Z,102113.59
2022-10-09T00:17:47.155Z,102116.66
2022-10-09T00:20:13.832Z,102112.22
2022-10-09T00:22:40.421Z,102117.09
2022-10-09T00:25:07.244Z,102119.88
2022-10-09T00:27:33.833Z,102119.88
2022-10-09T00:30:00.419Z,102118.91
2022-10-09T00:32:26.996Z,102126.28
2022-10-09T00:34:53.572Z,102127.25
2022-10-09T00:37:20.141Z,102131.44
2022-10-09T00:39:46.757Z,102118.06
2022-10-09T00:42:13.961Z,102128.38
2022-10-09T00:44:46.680Z,102131.97
2022-10-09T00:47:21.038Z,102132.69
2022-10-09T00:49:48.435Z,102129.75
2022-10-09T00:52:15.222Z,102125.56
2022-10-09T00:54:42.610Z,102145.75
2022-10-09T00:57:09.592Z,102139.28
2022-10-09T00:59:36.709Z,102142.72
2022-10-09T01:02:03.717Z,102142.44
2022-10-09T01:04:30.980Z,102139.66
2022-10-09T01:07:24.142Z,102144.69
2022-10-09T01:10:08.954Z,102141.63
2022-10-09T01:12:38.547Z,102146.19
2022-10-09T01:15:21.961Z,102149.88
2022-10-09T01:17:54.174Z,102147.09
2022-10-09T01:20:29.825Z,102146.91
2022-10-09T01:23:27.326Z,102152.19
2022-10-09T01:26:24.778Z,102151.34
2022-10-09T01:28:54.302Z,102154.09
2022-10-09T01:31:21.996Z,102151.59
2022-10-09T01:33:48.810Z,102151.84
2022-10-09T01:36:16.316Z,102150.16
2022-10-09T01:38:44.041Z,102160.44
2022-10-09T01:41:10.683Z,102158.47
2022-10-09T01:43:37.296Z,102159.69
2022-10-09T01:46:26.864Z,102162.03
2022-10-09T01:49:30.769Z,102163.31
2022-10-09T01:52:07.784Z,102165.97
2022-10-09T01:54:54.877Z,102168.84
2022-10-09T01:57:32.798Z,102171.63
2022-10-09T02:00:00.065Z,102162.78
2022-10-09T02:02:27.164Z,102173.53
2022-10-09T02:04:54.026Z,102175.63
2022-10-09T02:07:21.118Z,102178.00
2022-10-09T02:09:47.707Z,102178.69
2022-10-09T02:12:15.529Z,102179.25
2022-10-09T02:14:42.130Z,102180.09
2022-10-09T02:17:19.839Z,102181.88
2022-10-09T02:19:57.052Z,102184.91
2022-10-09T02:22:26.261Z,102180.47
2022-10-09T02:24:53.172Z,102186.00
2022-10-09T02:27:21.611Z,102185.16
2022-10-09T02:29:49.318Z,102191.09
2022-10-09T02:32:16.121Z,102187.88
2022-10-09T02:34:43.238Z,102186.84
2022-10-09T02:37:09.870Z,102188.88
2022-10-09T02:39:36.924Z,102192.31
2022-10-09T02:42:04.353Z,102192.59
2022-10-09T02:44:30.917Z,102190.78
2022-10-09T02:46:57.508Z,102200.84
2022-10-09T02:49:24.254Z,102189.63
2022-10-09T02:51:51.018Z,102194.38
2022-10-09T02:54:17.650Z,102199.13
2022-10-09T02:56:44.223Z,102204.69
2022-10-09T02:59:10.903Z,102202.28
2022-10-09T03:01:37.583Z,102198.16
2022-10-09T03:04:04.801Z,102196.94
2022-10-09T03:06:31.860Z,102209.31
2022-10-09T03:08:58.513Z,102199.97
2022-10-09T03:11:25.830Z,102205.84
2022-10-09T03:13:52.826Z,102209.88
2022-10-09T03:16:21.579Z,102211.44
2022-10-09T03:18:49.162Z,102215.06
2022-10-09T03:21:18.680Z,102215.50
2022-10-09T03:23:45.270Z,102217.91
2022-10-09T03:26:14.497Z,102221.66
2022-10-09T03:28:43.261Z,102229.56
2022-10-09T03:31:18.967Z,102229.44
2022-10-09T03:33:54.181Z,102228.22
2022-10-09T03:36:20.768Z,102236.28
2022-10-09T03:38:47.353Z,102245.56
2022-10-09T03:41:13.941Z,102239.84
2022-10-09T03:43:40.516Z,102243.00
2022-10-09T03:46:08.519Z,102241.44
2022-10-09T03:48:35.985Z,102244.94
2022-10-09T03:51:03.296Z,102244.69
2022-10-09T03:53:29.968Z,102250.13
2022-10-09T03:55:56.569Z,102252.94
2022-10-09T03:58:23.592Z,102253.44
2022-10-09T04:00:52.021Z,102255.06
2022-10-09T04:03:19.337Z,102252.16
2022-10-09T04:05:45.929Z,102250.28
2022-10-09T04:08:12.632Z,102245.78
2022-10-09T04:10:39.227Z,102245.09
2022-10-09T04:13:06.221Z,102245.34
2022-10-09T04:15:32.820Z,102248.22
2022-10-09T04:17:59.439Z,102247.91
2022-10-09T04:20:25.999Z,102244.25
2022-10-09T04:22:52.607Z,102248.13
2022-10-09T04:25:19.203Z,102250.88
2022-10-09T04:27:45.809Z,102254.81
2022-10-09T04:30:12.870Z,102253.91
2022-10-09T04:32:39.450Z,102252.56
2022-10-09T04:35:06.569Z,102255.13
2022-10-09T04:37:33.211Z,102262.63
2022-10-09T04:39:59.830Z,102266.28
2022-10-09T04:42:26.409Z,102261.84
2022-10-09T04:44:53.050Z,102274.09
2022-10-09T04:47:19.638Z,102274.31
2022-10-09T04:49:46.300Z,102273.75
2022-10-09T04:52:12.845Z,102269.03
2022-10-09T04:54:39.442Z,102272.00
2022-10-09T04:57:06.006Z,102276.66
2022-10-09T04:59:32.599Z,102277.94
2022-10-09T05:01:59.252Z,102261.13
2022-10-09T05:04:25.897Z,102274.78
2022-10-09T05:06:52.486Z,102287.03
2022-10-09T05:09:19.127Z,102282.31
2022-10-09T05:11:45.726Z,102286.50
2022-10-09T05:14:12.282Z,102283.84
2022-10-09T05:16:55.279Z,102291.66
2022-10-09T05:19:25.883Z,102298.91
2022-10-09T05:21:52.529Z,102299.16
2022-10-09T05:24:19.211Z,102299.41
2022-10-09T05:26:45.846Z,102299.56
2022-10-09T05:29:12.415Z,102311.53
2022-10-09T05:31:39.096Z,102306.94
2022-10-09T05:34:05.816Z,102311.00
2022-10-09T05:36:32.436Z,102316.06
2022-10-09T05:39:01.162Z,102315.06
2022-10-09T05:41:29.579Z,102312.44
2022-10-09T05:44:01.345Z,102316.75
2022-10-09T05:46:29.808Z,102312.44
2022-10-09T05:48:58.488Z,102315.88
2022-10-09T05:51:30.508Z,102321.91
2022-10-09T05:53:57.874Z,102326.22
2022-10-09T05:56:29.598Z,102327.88
2022-10-09T05:58:58.340Z,102330.16
2022-10-09T06:01:27.310Z,102334.72
2022-10-09T06:03:56.150Z,102341.09
2022-10-09T06:06:25.480Z,102346.91
2022-10-09T06:08:52.357Z,102348.00
2022-10-09T06:11:24.581Z,102350.78
2022-10-09T06:13:52.326Z,102355.22
2022-10-09T06:16:19.087Z,102360.50
2022-10-09T06:18:49.322Z,102356.50
2022-10-09T06:21:16.932Z,102364.66
2022-10-09T06:23:43.732Z,102370.91
2022-10-09T06:26:13.884Z,102366.59
2022-10-09T06:28:41.066Z,102367.53
2022-10-09T06:31:09.965Z,102370.91
2022-10-09T06:33:38.629Z,102374.53
2022-10-09T06:36:10.231Z,102371.28
2022-10-09T06:38:38.321Z,102380.91
2022-10-09T06:41:10.112Z,102369.72
2022-10-09T06:43:36.697Z,102385.53
2022-10-09T06:46:05.631Z,102384.59
2022-10-09T06:48:33.176Z,102384.88
2022-10-09T06:51:04.662Z,102384.16
2022-10-09T06:53:34.882Z,102384.03
2022-10-09T06:56:01.437Z,102390.97
2022-10-09T06:58:28.248Z,102393.75
2022-10-09T07:01:15.098Z,102396.13
2022-10-09T07:03:44.015Z,102400.22
2022-10-09T07:06:14.584Z,102402.47
2022-10-09T07:08:43.107Z,102399.69
2022-10-09T07:11:20.910Z,102404.97
2022-10-09T07:13:49.986Z,102398.59
2022-10-09T07:16:21.963Z,102395.94
2022-10-09T07:18:48.961Z,102401.97
2022-10-09T07:21:15.741Z,102411.44
2022-10-09T07:23:42.970Z,102414.94
2022-10-09T07:26:18.311Z,102414.78
2022-10-09T07:28:46.057Z,102420.06
2022-10-09T07:31:13.624Z,102417.59
2022-10-09T07:33:41.803Z,102420.06
2022-10-09T07:36:09.900Z,102419.81
2022-10-09T07:38:36.638Z,102424.88
2022-10-09T07:41:08.684Z,102427.22
2022-10-09T07:43:36.266Z,102429.38
2022-10-09T07:46:04.477Z,102433.47
2022-10-09T07:48:31.521Z,102427.06
2022-10-09T07:50:58.103Z,102432.34
2022-10-09T07:53:24.856Z,102436.66
2022-10-09T07:55:51.433Z,102429.59
2022-10-09T07:58:18.132Z,102433.91
2022-10-09T08:00:44.690Z,102436.03
2022-10-09T08:03:11.378Z,102438.66
2022-10-09T08:05:38.058Z,102438.78
2022-10-09T08:08:04.703Z,102433.25
2022-10-09T08:10:32.095Z,102436.22
2022-10-09T08:12:58.780Z,102440.53
2022-10-09T08:15:26.203Z,102444.09
2022-10-09T08:17:53.871Z,102446.63
2022-10-09T08:20:20.597Z,102444.44
2022-10-09T08:22:47.581Z,102445.53
2022-10-09T08:25:14.430Z,102438.72
2022-10-09T08:27:40.976Z,102451.69
2022-10-09T08:30:08.518Z,102445.00
2022-10-09T08:32:35.248Z,102443.31
2022-10-09T08:35:01.934Z,102442.78
2022-10-09T08:37:28.529Z,102448.53
2022-10-09T08:39:55.095Z,102449.50
2022-10-09T08:42:35.083Z,102447.44
2022-10-09T08:45:02.426Z,102443.72
2022-10-09T08:47:41.370Z,102448.50
2022-10-09T08:50:24.059Z,102442.66
2022-10-09T08:52:57.030Z,102447.78
2022-10-09T08:55:32.682Z,102445.13
2022-10-09T08:58:05.579Z,102445.66
2022-10-09T09:00:43.771Z,102449.16
2022-10-09T09:03:37.736Z,102449.00
2022-10-09T09:06:17.127Z,102443.19
2022-10-09T09:08:59.041Z,102449.47
2022-10-09T09:11:44.283Z,102449.91
2022-10-09T09:14:40.820Z,102449.31
2022-10-09T09:17:29.100Z,102451.53
2022-10-09T09:20:12.860Z,102449.72
2022-10-09T09:22:43.566Z,102450.41
2022-10-09T09:25:24.957Z,102449.19
2022-10-09T09:27:58.375Z,102441.56
2022-10-09T09:30:27.246Z,102444.63
2022-10-09T09:33:16.952Z,102442.47
2022-10-09T09:35:55.396Z,102445.53
2022-10-09T09:38:22.015Z,102444.44
2022-10-09T09:40:48.880Z,102436.34
2022-10-09T09:43:20.437Z,102435.38
2022-10-09T09:45:47.685Z,102438.59
2022-10-09T09:48:34.469Z,102438.06
2022-10-09T09:51:23.374Z,102433.78
2022-10-09T09:54:19.117Z,102424.03
2022-10-09T09:59:40.106Z,102428.81
2022-10-09T10:02:06.709Z,102430.34
2022-10-09T10:04:33.389Z,102427.25
2022-10-09T10:06:59.979Z,102424.78
2022-10-09T10:09:27.181Z,102419.06
2022-10-09T10:11:59.320Z,102416.97
2022-10-09T10:14:26.908Z,102417.81
2022-10-09T10:16:55.527Z,102417.53
2022-10-09T10:19:31.829Z,102413.19
2022-10-09T10:22:04.167Z,102411.25
2022-10-09T10:24:38.902Z,102397.56
2022-10-09T10:27:11.781Z,102408.47
2022-10-09T10:33:27.827Z,102401.09
2022-10-09T10:35:56.332Z,102403.03
2022-10-09T10:38:46.783Z,102404.59
2022-10-09T10:41:26.691Z,102399.84
2022-10-09T10:44:04.173Z,102400.28
2022-10-09T10:46:41.917Z,102389.53
2022-10-09T10:49:10.699Z,102390.78
2022-10-09T10:51:46.642Z,102393.84
2022-10-09T10:54:34.161Z,102388.00
2022-10-09T10:57:16.845Z,102389.81
2022-10-09T11:00:18.981Z,102384.63
2022-10-09T11:03:20.748Z,102380.31
2022-10-09T11:05:56.480Z,102377.66
2022-10-09T11:08:29.156Z,102377.38
2022-10-09T11:11:15.888Z,102372.78
2022-10-09T11:14:14.564Z,102371.53
2022-10-09T11:16:58.225Z,102372.66
2022-10-09T11:19:54.042Z,102372.22
2022-10-09T11:22:38.931Z,102377.25
2022-10-09T11:25:20.265Z,102369.69
2022-10-09T11:27:52.944Z,102362.59
2022-10-09T11:30:19.886Z,102366.06
2022-10-09T11:33:18.388Z,102355.47
2022-10-09T11:36:01.787Z,102353.94
2022-10-09T11:38:32.132Z,102353.25
2022-10-09T11:41:00.050Z,102350.72
2022-10-09T11:43:28.784Z,102350.72
2022-10-09T11:45:55.320Z,102344.59
2022-10-09T11:48:37.830Z,102341.78
2022-10-09T11:51:19.870Z,102341.66
2022-10-09T11:53:47.239Z,102333.56
2022-10-09T11:56:29.170Z,102330.06
2022-10-09T11:59:04.830Z,102331.75
2022-10-09T12:01:40.978Z,102323.78
2022-10-09T12:04:27.763Z,102320.47
2022-10-09T12:07:09.479Z,102325.03
2022-10-09T12:09:48.305Z,102320.59
2022-10-09T12:12:18.450Z,102314.63
2022-10-09T12:14:47.008Z,102305.94
2022-10-09T12:17:22.570Z,102303.28
2022-10-09T12:20:01.750Z,102298.00
2022-10-09T12:22:41.588Z,102300.66
2022-10-09T12:25:32.739Z,102298.72
2022-10-09T12:28:00.599Z,102295.75
2022-10-09T12:30:35.602Z,102288.78
2022-10-09T12:33:15.286Z,102290.59
2022-10-09T12:35:44.772Z,102279.84
2022-10-09T12:38:43.881Z,102275.66
2022-10-09T12:41:29.046Z,102272.47
2022-10-09T12:43:56.612Z,102268.84
2022-10-09T12:46:34.205Z,102262.97
2022-10-09T12:49:02.199Z,102269.38
2022-10-09T12:51:30.535Z,102271.22
2022-10-09T12:53:57.179Z,102270.13
2022-10-09T12:56:35.895Z,102273.72
2022-10-09T12:59:02.934Z,102271.34
2022-10-09T13:01:29.819Z,102265.19
2022-10-09T13:04:04.305Z,102267.75
2022-10-09T13:06:38.471Z,102264.34
2022-10-09T13:09:07.350Z,102264.88
2022-10-09T13:11:38.057Z,102257.72
2022-10-09T13:14:05.006Z,102256.22
2022-10-09T13:16:42.867Z,102260.44
2022-10-09T13:19:24.906Z,102267.00
2022-10-09T13:22:21.174Z,102253.19
2022-10-09T13:24:50.300Z,102254.16
2022-10-09T13:27:19.611Z,102251.78
2022-10-09T13:29:47.674Z,102248.75
2022-10-09T13:32:15.837Z,102245.41
2022-10-09T13:34:42.689Z,102239.38
2022-10-09T13:37:14.765Z,102235.56
2022-10-09T13:39:41.760Z,102240.41
2022-10-09T13:42:10.885Z,102239.81
2022-10-09T13:44:37.457Z,102233.94
2022-10-09T13:47:04.039Z,102236.09
2022-10-09T13:49:30.674Z,102237.13
2022-10-09T13:51:57.243Z,102234.00
2022-10-09T13:54:24.711Z,102231.66
2022-10-09T13:56:51.310Z,102236.38
2022-10-09T13:59:17.902Z,102232.59
2022-10-09T14:01:44.608Z,102229.78
2022-10-09T14:04:11.326Z,102225.00
2022-10-09T14:06:38.201Z,102221.06
2022-10-09T14:09:05.521Z,102221.00
2022-10-09T14:11:32.384Z,102220.00
2022-10-09T14:13:59.544Z,102216.75
2022-10-09T14:16:26.938Z,102215.31
2022-10-09T14:22:14.692Z,102213.69
2022-10-09T14:24:41.348Z,102213.06
2022-10-09T14:27:07.883Z,102203.78
2022-10-09T14:29:34.416Z,102205.78
2022-10-09T14:32:00.970Z,102212.78
2022-10-09T14:34:27.510Z,102213.41
2022-10-09T14:36:54.071Z,102207.16
2022-10-09T14:39:20.746Z,102202.91
2022-10-09T14:41:47.329Z,102198.41
2022-10-09T14:44:13.907Z,102195.69
2022-10-09T14:46:40.451Z,102199.66
2022-10-09T14:49:08.137Z,102192.94
2022-10-09T14:51:39.697Z,102188.97
2022-10-09T14:54:07.540Z,102187.34
2022-10-09T14:56:34.676Z,102185.25
2022-10-09T14:59:01.319Z,102180.81
2022-10-09T15:01:29.367Z,102181.50
2022-10-09T15:03:56.034Z,102172.38
2022-10-09T15:06:25.435Z,102175.09
2022-10-09T15:08:55.041Z,102175.28
2022-10-09T15:11:21.617Z,102172.63
2022-10-09T15:13:48.180Z,102171.63
2022-10-09T15:16:16.519Z,102171.88
2022-10-09T15:18:43.362Z,102165.41
2022-10-09T15:21:19.932Z,102169.59
2022-10-09T15:23:47.003Z,102169.28
2022-10-09T15:26:14.181Z,102168.28
2022-10-09T15:28:42.657Z,102163.03
2022-10-09T15:31:19.013Z,102160.81
2022-10-09T15:33:45.555Z,102162.94
2022-10-09T15:36:12.200Z,102159.06
2022-10-09T15:38:38.768Z,102159.81
2022-10-09T15:41:05.457Z,102163.59
2022-10-09T15:43:37.526Z,102164.59
2022-10-09T15:46:05.810Z,102162.91
2022-10-09T15:48:32.377Z,102157.06
2022-10-09T15:51:04.076Z,102153.59
2022-10-09T15:53:30.765Z,102158.72
2022-10-09T15:55:57.312Z,102158.91
2022-10-09T15:58:23.853Z,102152.88
2022-10-09T16:00:51.052Z,102155.81
2022-10-09T16:03:19.075Z,102153.78
2022-10-09T16:05:49.522Z,102161.34
2022-10-09T16:08:17.243Z,102165.25
2022-10-09T16:10:49.194Z,102154.13
2022-10-09T16:13:16.130Z,102157.91
2022-10-09T16:15:48.924Z,102155.69
2022-10-09T16:18:23.432Z,102150.84
2022-10-09T16:20:50.406Z,102155.16
2022-10-09T16:23:17.899Z,102152.50
2022-10-09T16:25:44.495Z,102157.09
2022-10-09T16:28:12.316Z,102153.88
2022-10-09T16:30:44.437Z,102155.41
2022-10-09T16:33:12.905Z,102153.75
2022-10-09T16:35:39.999Z,102162.56
2022-10-09T16:38:06.726Z,102155.59
2022-10-09T16:40:57.402Z,102154.47
2022-10-09T16:43:20.273Z,102146.66
2022-10-09T16:45:46.855Z,102156.84
2022-10-09T16:48:13.404Z,102153.38
2022-10-09T16:50:42.285Z,102159.50
2022-10-09T16:53:08.868Z,102150.16
2022-10-09T16:55:35.441Z,102149.78
2022-10-09T16:58:02.340Z,102151.44
2022-10-09T17:00:29.228Z,102141.97
2022-10-09T17:02:56.818Z,102146.56
2022-10-09T17:05:25.454Z,102146.59
2022-10-09T17:07:52.478Z,102150.50
2022-10-09T17:10:19.454Z,102145.34
2022-10-09T17:12:46.105Z,102158.47
2022-10-09T17:15:13.561Z,102153.16
2022-10-09T17:17:40.909Z,102157.22
2022-10-09T17:20:08.084Z,102145.75
2022-10-09T17:22:34.702Z,102147.16
2022-10-09T17:25:01.275Z,102148.28
2022-10-09T17:27:28.177Z,102138.13
2022-10-09T17:29:54.892Z,102147.34
2022-10-09T17:32:21.538Z,102144.25
2022-10-09T17:34:48.152Z,102138.00
2022-10-09T17:37:14.705Z,102136.88
2022-10-09T17:39:44.143Z,102132.41
2022-10-09T17:42:12.171Z,102126.25
2022-10-09T17:44:38.710Z,102126.09
2022-10-09T17:47:06.190Z,102118.03
2022-10-09T17:49:32.804Z,102117.34
2022-10-09T17:51:59.363Z,102114.69
2022-10-09T17:54:26.090Z,102121.13
2022-10-09T17:56:52.630Z,102125.03
2022-10-09T17:59:19.212Z,102112.66
2022-10-09T18:01:45.796Z,102116.97
2022-10-09T18:04:15.549Z,102116.41
2022-10-09T18:06:42.287Z,102111.25
2022-10-09T18:09:09.036Z,102117.41
2022-10-09T18:11:35.689Z,102119.63
2022-10-09T18:14:03.736Z,102107.78
2022-10-09T18:16:35.753Z,102111.84
2022-10-09T18:19:12.233Z,102112.50
2022-10-09T18:21:44.822Z,102107.22
2022-10-09T18:24:12.183Z,102109.06
2022-10-09T18:26:39.260Z,102101.09
2022-10-09T18:29:05.935Z,102098.31
2022-10-09T18:31:32.630Z,102099.19
2022-10-09T18:34:00.045Z,102096.91
2022-10-09T18:36:31.803Z,102101.06
2022-10-09T18:39:16.557Z,102094.97
2022-10-09T18:41:43.756Z,102092.47
2022-10-09T18:44:17.321Z,102088.81
2022-10-09T18:46:49.835Z,102085.75
2022-10-09T18:49:18.809Z,102096.50
2022-10-09T18:51:46.035Z,102086.59
2022-10-09T18:54:17.933Z,102087.97
2022-10-09T18:56:45.208Z,102096.75
2022-10-09T18:59:14.309Z,102084.38
2022-10-09T19:01:41.018Z,102087.75
2022-10-09T19:04:08.088Z,102094.56
2022-10-09T19:06:34.724Z,102085.53
2022-10-09T19:09:01.474Z,102084.81
2022-10-09T19:11:29.573Z,102084.81
2022-10-09T19:13:56.600Z,102083.84
2022-10-09T19:16:24.253Z,102082.28
2022-10-09T19:18:53.312Z,102079.22
2022-10-09T19:21:19.911Z,102072.66
2022-10-09T19:23:48.282Z,102075.31
2022-10-09T19:26:14.842Z,102072.53
2022-10-09T19:28:41.572Z,102074.47
2022-10-09T19:31:09.827Z,102070.03
2022-10-09T19:33:37.947Z,102066.25
2022-10-09T19:36:05.676Z,102068.91
2022-10-09T19:38:32.888Z,102067.91
2022-10-09T19:41:04.665Z,102066.25
2022-10-09T19:43:31.885Z,102066.38
2022-10-09T19:46:03.636Z,102066.38
2022-10-09T19:48:30.589Z,102062.75
2022-10-09T19:50:57.249Z,102056.78
2022-10-09T19:53:23.834Z,102052.34
2022-10-09T19:55:50.368Z,102053.44
2022-10-09T19:58:17.971Z,102048.31
2022-10-09T20:00:46.618Z,102052.63
2022-10-09T20:03:13.200Z,102048.13
2022-10-09T20:05:39.771Z,102042.84
2022-10-09T20:08:06.571Z,102045.66
2022-10-09T20:10:36.432Z,102042.03
2022-10-09T20:13:03.615Z,102040.34
2022-10-09T20:15:30.527Z,102042.03
2022-10-09T20:17:57.162Z,102049.25
2022-10-09T20:20:24.181Z,102039.66
2022-10-09T20:22:50.929Z,102045.94
2022-10-09T20:25:18.043Z,102037.13
2022-10-09T20:27:44.573Z,102040.63
2022-10-09T20:30:11.716Z,102035.34
2022-10-09T20:32:38.272Z,102037.84
2022-10-09T20:35:05.394Z,102037.00
2022-10-09T20:37:31.992Z,102034.22
2022-10-09T20:39:58.518Z,102029.34
2022-10-09T20:42:25.246Z,102028.25
2022-10-09T20:44:51.788Z,102025.59
2022-10-09T20:47:18.315Z,102019.59
2022-10-09T20:49:44.878Z,102016.09
2022-10-09T20:52:11.435Z,102020.72
2022-10-09T20:54:37.976Z,102019.72
2022-10-09T20:57:04.534Z,102022.25
2022-10-09T20:59:31.275Z,102025.03
2022-10-09T21:01:57.863Z,102023.22
2022-10-09T21:04:24.461Z,102012.91
2022-10-09T21:06:51.017Z,102014.44
2022-10-09T21:09:17.599Z,102023.09
2022-10-09T21:11:45.776Z,102007.22
2022-10-09T21:14:12.402Z,102003.03
2022-10-09T21:16:38.946Z,102003.19
2022-10-09T21:19:05.966Z,102009.28
2022-10-09T21:21:32.656Z,102010.41
2022-10-09T21:24:00.062Z,102007.09
2022-10-09T21:26:28.036Z,101999.97
2022-10-09T21:28:59.395Z,102002.47
2022-10-09T21:31:28.597Z,102002.34
2022-10-09T21:33:55.865Z,102005.81
2022-10-09T21:37:02.226Z,102004.00
2022-10-09T21:39:30.650Z,101998.88
2022-10-09T21:41:57.218Z,102002.59
2022-10-09T21:44:23.785Z,102000.81
2022-10-09T21:46:50.313Z,102002.59
2022-10-09T21:49:20.638Z,102003.31
2022-10-09T21:51:47.463Z,101999.00
2022-10-09T21:54:14.513Z,101999.00
2022-10-09T21:56:41.214Z,101998.16
2022-10-09T21:59:08.164Z,101990.22
2022-10-09T22:01:34.964Z,101995.50
2022-10-09T22:04:01.666Z,101989.53
2022-10-09T22:06:28.204Z,101988.84
2022-10-09T22:08:54.751Z,101984.53
2022-10-09T22:11:21.348Z,101978.53
2022-10-09T22:13:47.960Z,101978.53
2022-10-09T22:16:15.558Z,101968.91
2022-10-09T22:18:42.305Z,101965.47
2022-10-09T22:21:12.495Z,101964.47
2022-10-09T22:23:39.187Z,101956.41
2022-10-09T22:26:10.075Z,101957.53
2022-10-09T22:28:36.678Z,101953.03
2022-10-09T22:31:35.803Z,101953.91
2022-10-09T22:34:02.813Z,101955.84
2022-10-09T22:36:31.911Z,101950.53
2022-10-09T22:39:00.345Z,101947.88
2022-10-09T22:41:27.863Z,101952.22
2022-10-09T22:43:56.797Z,101950.53
2022-10-09T22:46:31.337Z,101948.19
2022-10-09T22:48:58.158Z,101941.66
2022-10-09T22:51:27.190Z,101944.59
2022-10-09T22:53:55.205Z,101941.13
2022-10-09T22:56:24.360Z,101940.13
2022-10-09T22:58:52.988Z,101940.28
2022-10-09T23:01:44.188Z,101934.72
2022-10-09T23:04:12.684Z,101928.44
2022-10-09T23:06:40.155Z,101931.22
2022-10-09T23:09:08.553Z,101931.94
2022-10-09T23:11:35.552Z,101932.06
2022-10-09T23:14:02.460Z,101928.44
2022-10-09T23:16:29.975Z,101929.41
2022-10-09T23:18:58.196Z,101937.63
2022-10-09T23:21:25.156Z,101924.53
2022-10-09T23:23:52.493Z,101924.53
2022-10-09T23:26:21.971Z,101921.63
2022-10-09T23:28:59.721Z,101920.09
2022-10-09T23:31:26.940Z,101920.78
2022-10-09T23:33:53.885Z,101914.22
2022-10-09T23:36:23.618Z,101911.88
2022-10-09T23:38:50.182Z,101915.31
2022-10-09T23:41:19.581Z,101918.69
2022-10-09T23:43:46.710Z,101919.09
2022-10-09T23:46:18.691Z,101909.78
2022-10-09T23:48:46.212Z,101908.97
2022-10-09T23:51:14.106Z,101902.53
2022-10-09T23:53:41.220Z,101900.59
2022-10-09T23:56:28.927Z,101900.44
2022-10-09T23:58:56.394Z,101900.72
